Time;durP1;ratioP1;P1;durP2;ratioP2;P2;SDS_P1;SDS_P2;PMS_P1;PMS_P2;Temp;Humidity;BMP_temperature;BMP_pressure;BME280_temperature;BME280_humidity;BME280_pressure;Samples;Min_cycle;Max_cycle;Signal;HPM_P1;HPM_P2
2022/09/18 00:01:36;;;;;;;;;;;13.90;99.90;;;;;;7342372;19;108443;-74
2022/09/18 00:04:04;;;;;;;;;;;13.90;99.90;;;;;;7342975;19;110243;-74
2022/09/18 00:06:32;;;;;;;;;;;13.90;99.90;;;;;;7347221;19;109166;-74
2022/09/18 00:08:59;;;;;;;;;;;13.80;99.90;;;;;;7342813;19;109125;-74
2022/09/18 00:11:28;;;;;;;;;;;13.80;99.90;;;;;;7338891;19;110193;-74
2022/09/18 00:13:55;;;;;;;;;;;13.80;99.90;;;;;;7343323;19;108818;-74
2022/09/18 00:16:23;;;;;;;;;;;13.80;99.90;;;;;;7341875;19;110966;-74
2022/09/18 00:18:50;;;;;;;;;;;13.80;99.90;;;;;;7343010;19;110432;-73
2022/09/18 00:21:18;;;;;;;;;;;13.80;99.90;;;;;;7342056;19;108413;-74
2022/09/18 00:23:45;;;;;;;;;;;13.70;99.90;;;;;;7344682;19;109551;-74
2022/09/18 00:26:13;;;;;;;;;;;13.70;99.90;;;;;;7341883;19;110782;-75
2022/09/18 00:28:40;;;;;;;;;;;13.70;99.90;;;;;;7348957;19;108694;-74
2022/09/18 00:31:09;;;;;;;;;;;13.70;99.90;;;;;;7341365;19;109764;-74
2022/09/18 00:33:38;;;;;;;;;;;13.70;99.90;;;;;;7342792;19;108770;-75
2022/09/18 00:36:07;;;;;;;;;;;13.70;99.90;;;;;;7341735;19;112577;-76
2022/09/18 00:38:34;;;;;;;;;;;13.70;99.90;;;;;;7342419;19;110308;-75
2022/09/18 00:41:02;;;;;;;;;;;13.70;99.90;;;;;;7339588;19;108540;-76
2022/09/18 00:43:30;;;;;;;;;;;13.70;99.90;;;;;;7342516;19;109082;-78
2022/09/18 00:46:03;;;;;;;;;;;13.60;99.90;;;;;;7341476;19;109519;-77
2022/09/18 00:48:43;;;;;;;;;;;13.70;99.90;;;;;;7345226;19;109341;-78
2022/09/18 00:51:10;;;;;;;;;;;13.70;99.90;;;;;;7345568;19;110600;-78
2022/09/18 00:53:39;;;;;;;;;;;13.70;99.90;;;;;;7342247;19;109966;-77
2022/09/18 00:56:06;;;;;;;;;;;13.70;99.90;;;;;;7344535;19;109114;-78
2022/09/18 00:58:34;;;;;;;;;;;13.60;99.90;;;;;;7341885;19;109125;-78
2022/09/18 01:01:01;;;;;;;;;;;13.60;99.90;;;;;;7341320;19;108779;-77
2022/09/18 01:03:28;;;;;;;;;;;13.60;99.90;;;;;;7338599;19;108740;-77
2022/09/18 01:06:07;;;;;;;;;;;13.60;99.90;;;;;;7342155;19;110540;-77
2022/09/18 01:08:37;;;;;;;;;;;13.60;99.90;;;;;;7340977;19;108747;-77
2022/09/18 01:11:09;;;;;;;;;;;13.60;99.90;;;;;;7340151;19;108456;-77
2022/09/18 01:14:08;;;;;;;;;;;13.60;99.90;;;;;;7346692;19;110162;-77
2022/09/18 01:16:50;;;;;;;;;;;13.60;99.90;;;;;;7338445;19;108888;-77
2022/09/18 01:19:36;;;;;;;;;;;13.60;99.90;;;;;;7340418;19;109448;-77
2022/09/18 01:22:22;;;;;;;;;;;13.60;99.90;;;;;;7343319;19;108809;-78
2022/09/18 01:24:57;;;;;;;;;;;13.50;99.90;;;;;;7340551;19;110077;-77
2022/09/18 01:27:24;;;;;;;;;;;13.60;99.90;;;;;;7340547;19;110248;-78
2022/09/18 01:29:54;;;;;;;;;;;13.60;99.90;;;;;;7343224;19;108345;-77
2022/09/18 01:32:24;;;;;;;;;;;13.60;99.90;;;;;;7340151;19;109227;-76
2022/09/18 01:34:54;;;;;;;;;;;13.60;99.90;;;;;;7340618;19;109024;-76
2022/09/18 01:37:35;;;;;;;;;;;13.60;99.90;;;;;;7346331;19;109668;-78
2022/09/18 01:40:05;;;;;;;;;;;13.60;99.90;;;;;;7341607;19;110635;-77
2022/09/18 01:42:33;;;;;;;;;;;13.60;99.90;;;;;;7339932;19;108831;-77
2022/09/18 01:45:03;;;;;;;;;;;13.60;99.90;;;;;;7340581;19;109374;-77
2022/09/18 01:47:34;;;;;;;;;;;13.60;99.90;;;;;;7340670;19;110902;-75
2022/09/18 01:50:01;;;;;;;;;;;13.60;99.90;;;;;;7339834;19;109924;-76
2022/09/18 01:52:30;;;;;;;;;;;13.60;99.90;;;;;;7338794;19;108988;-77
2022/09/18 01:54:59;;;;;;;;;;;13.60;99.90;;;;;;7341180;19;113305;-76
2022/09/18 01:57:31;;;;;;;;;;;13.60;99.90;;;;;;7344269;19;108575;-76
2022/09/18 02:00:09;;;;;;;;;;;13.60;99.90;;;;;;7340253;19;109744;-77
2022/09/18 02:02:35;;;;;;;;;;;13.60;99.90;;;;;;7340608;19;108530;-77
2022/09/18 02:05:06;;;;;;;;;;;13.60;99.90;;;;;;7341298;19;109121;-77
2022/09/18 02:07:48;;;;;;;;;;;13.60;99.90;;;;;;7339994;19;111310;-76
2022/09/18 02:10:16;;;;;;;;;;;13.60;99.90;;;;;;7339484;19;108514;-76
2022/09/18 02:12:44;;;;;;;;;;;13.60;99.90;;;;;;7338746;19;109697;-76
2022/09/18 02:15:13;;;;;;;;;;;13.60;99.90;;;;;;7340038;19;110049;-77
2022/09/18 02:17:47;;;;;;;;;;;13.50;99.90;;;;;;7341859;19;108662;-77
2022/09/18 02:20:19;;;;;;;;;;;13.50;99.90;;;;;;7346265;19;112813;-77
2022/09/18 02:22:47;;;;;;;;;;;13.50;99.90;;;;;;7338994;19;108857;-77
2022/09/18 02:25:16;;;;;;;;;;;13.50;99.90;;;;;;7336325;19;108728;-77
2022/09/18 02:27:43;;;;;;;;;;;13.50;99.90;;;;;;7339368;19;109116;-76
2022/09/18 02:30:10;;;;;;;;;;;13.40;99.90;;;;;;7338366;19;108818;-78
2022/09/18 02:32:38;;;;;;;;;;;13.40;99.90;;;;;;7339977;19;108400;-77
2022/09/18 02:35:06;;;;;;;;;;;13.40;99.90;;;;;;7338492;19;110808;-77
2022/09/18 02:37:35;;;;;;;;;;;13.40;99.90;;;;;;7339059;19;108956;-77
2022/09/18 02:40:21;;;;;;;;;;;13.40;99.90;;;;;;7338725;19;109487;-77
2022/09/18 02:43:00;;;;;;;;;;;13.30;99.90;;;;;;7344740;19;110526;-75
2022/09/18 02:45:42;;;;;;;;;;;13.30;99.90;;;;;;7337573;19;108509;-78
2022/09/18 02:48:27;;;;;;;;;;;13.30;99.90;;;;;;7340666;19;109900;-79
2022/09/18 02:51:03;;;;;;;;;;;13.30;99.90;;;;;;7341648;19;108715;-81
2022/09/18 02:53:35;;;;;;;;;;;13.30;99.90;;;;;;7340266;19;109348;-79
2022/09/18 02:56:11;;;;;;;;;;;13.20;99.90;;;;;;7346957;19;110294;-77
2022/09/18 02:58:50;;;;;;;;;;;13.20;99.90;;;;;;7347181;19;109202;-78
2022/09/18 03:01:18;;;;;;;;;;;13.20;99.90;;;;;;7344818;19;109109;-77
2022/09/18 03:03:45;;;;;;;;;;;13.20;99.90;;;;;;7344218;19;109191;-78
2022/09/18 03:06:12;;;;;;;;;;;13.20;99.90;;;;;;7350019;19;108306;-77
2022/09/18 03:08:39;;;;;;;;;;;13.20;99.90;;;;;;7344961;19;111156;-78
2022/09/18 03:11:06;;;;;;;;;;;13.20;99.90;;;;;;7343950;19;108313;-76
2022/09/18 03:13:33;;;;;;;;;;;13.20;99.90;;;;;;7345936;19;108711;-77
2022/09/18 03:16:00;;;;;;;;;;;13.20;99.90;;;;;;7344096;19;109243;-76
2022/09/18 03:18:27;;;;;;;;;;;13.20;99.90;;;;;;7343280;19;108493;-79
2022/09/18 03:20:54;;;;;;;;;;;13.20;99.90;;;;;;7343159;19;108867;-79
2022/09/18 03:23:22;;;;;;;;;;;13.10;99.90;;;;;;7342701;19;110664;-78
2022/09/18 03:25:49;;;;;;;;;;;13.10;99.90;;;;;;7343189;19;108955;-79
2022/09/18 03:28:17;;;;;;;;;;;13.10;99.90;;;;;;7348172;19;112350;-80
2022/09/18 03:30:44;;;;;;;;;;;13.10;99.90;;;;;;7342824;19;109104;-79
2022/09/18 03:33:11;;;;;;;;;;;13.10;99.90;;;;;;7343134;19;108273;-78
2022/09/18 03:35:38;;;;;;;;;;;13.10;99.90;;;;;;7342582;19;110084;-77
2022/09/18 03:38:05;;;;;;;;;;;13.10;99.90;;;;;;7342728;19;108734;-76
2022/09/18 03:40:32;;;;;;;;;;;13.00;99.90;;;;;;7343864;19;109394;-76
2022/09/18 03:42:59;;;;;;;;;;;13.00;99.90;;;;;;7344572;19;108869;-76
2022/09/18 03:45:26;;;;;;;;;;;13.00;99.90;;;;;;7342045;19;109355;-76
2022/09/18 03:47:53;;;;;;;;;;;13.00;99.90;;;;;;7343742;19;109133;-75
2022/09/18 03:50:20;;;;;;;;;;;13.00;99.90;;;;;;7347452;19;110474;-78
2022/09/18 03:52:48;;;;;;;;;;;13.00;99.90;;;;;;7342615;19;108410;-76
2022/09/18 03:55:20;;;;;;;;;;;13.00;99.90;;;;;;7341636;19;109269;-76
2022/09/18 03:57:47;;;;;;;;;;;13.00;99.90;;;;;;7341150;19;109456;-76
2022/09/18 04:00:14;;;;;;;;;;;12.90;99.90;;;;;;7341482;19;111159;-75
2022/09/18 04:02:41;;;;;;;;;;;12.90;99.90;;;;;;7342116;19;110731;-75
2022/09/18 04:05:08;;;;;;;;;;;12.90;99.90;;;;;;7339919;19;109201;-74
2022/09/18 04:07:35;;;;;;;;;;;12.90;99.90;;;;;;7341159;19;109526;-75
2022/09/18 04:10:02;;;;;;;;;;;12.90;99.90;;;;;;7349624;19;110061;-75
2022/09/18 04:12:29;;;;;;;;;;;12.90;99.90;;;;;;7344102;19;108724;-76
2022/09/18 04:14:56;;;;;;;;;;;12.80;99.90;;;;;;7341243;19;111383;-75
2022/09/18 04:17:23;;;;;;;;;;;12.80;99.90;;;;;;7341237;19;108542;-75
2022/09/18 04:19:50;;;;;;;;;;;12.80;99.90;;;;;;7342795;19;108316;-74
2022/09/18 04:22:19;;;;;;;;;;;12.80;99.90;;;;;;7342792;19;109386;-74
2022/09/18 04:24:46;;;;;;;;;;;12.70;99.90;;;;;;7341446;19;108672;-75
2022/09/18 04:27:13;;;;;;;;;;;12.70;99.90;;;;;;7343407;19;109273;-74
2022/09/18 04:29:40;;;;;;;;;;;12.70;99.90;;;;;;7339090;19;109305;-75
2022/09/18 04:32:08;;;;;;;;;;;12.70;99.90;;;;;;7346144;19;109410;-74
2022/09/18 04:34:35;;;;;;;;;;;12.70;99.90;;;;;;7340607;19;110681;-74
2022/09/18 04:37:02;;;;;;;;;;;12.70;99.90;;;;;;7341359;19;108480;-75
2022/09/18 04:39:35;;;;;;;;;;;12.70;99.90;;;;;;7341210;19;109118;-76
2022/09/18 04:42:02;;;;;;;;;;;12.80;99.90;;;;;;7340403;19;110375;-77
2022/09/18 04:44:29;;;;;;;;;;;12.70;99.90;;;;;;7342207;19;108813;-77
2022/09/18 04:46:56;;;;;;;;;;;12.70;99.90;;;;;;7340314;19;109311;-77
2022/09/18 04:49:23;;;;;;;;;;;12.70;99.90;;;;;;7340079;19;111240;-77
2022/09/18 04:51:50;;;;;;;;;;;12.80;99.90;;;;;;7341810;19;108856;-76
2022/09/18 04:54:16;;;;;;;;;;;12.80;99.90;;;;;;7345850;19;109243;-76
2022/09/18 04:56:43;;;;;;;;;;;12.80;99.90;;;;;;7341096;19;108945;-76
2022/09/18 04:59:10;;;;;;;;;;;12.90;99.90;;;;;;7337951;19;108623;-77
2022/09/18 05:01:37;;;;;;;;;;;12.80;99.90;;;;;;7339435;19;110184;-76
2022/09/18 05:04:05;;;;;;;;;;;12.80;99.90;;;;;;7339797;19;108811;-78
2022/09/18 05:06:32;;;;;;;;;;;12.80;99.90;;;;;;7339851;19;108788;-77
2022/09/18 05:08:59;;;;;;;;;;;12.80;99.90;;;;;;7339900;19;109486;-76
2022/09/18 05:11:26;;;;;;;;;;;12.80;99.90;;;;;;7340829;19;109364;-75
2022/09/18 05:13:55;;;;;;;;;;;12.80;99.90;;;;;;7341718;19;109511;-76
2022/09/18 05:16:22;;;;;;;;;;;12.80;99.90;;;;;;7340592;19;109330;-76
2022/09/18 05:18:50;;;;;;;;;;;12.80;99.90;;;;;;7340006;19;109153;-75
2022/09/18 05:21:18;;;;;;;;;;;12.80;99.90;;;;;;7339122;19;110396;-75
2022/09/18 05:23:45;;;;;;;;;;;12.80;99.90;;;;;;7338963;19;108587;-76
2022/09/18 05:26:12;;;;;;;;;;;12.80;99.90;;;;;;7339475;19;109430;-76
2022/09/18 05:28:39;;;;;;;;;;;12.70;99.90;;;;;;7340842;19;110861;-76
2022/09/18 05:31:07;;;;;;;;;;;12.70;99.90;;;;;;7340110;19;108517;-75
2022/09/18 05:33:35;;;;;;;;;;;12.70;99.90;;;;;;7341279;19;108956;-76
2022/09/18 05:36:04;;;;;;;;;;;12.70;99.90;;;;;;7340806;19;110027;-75
2022/09/18 05:38:31;;;;;;;;;;;12.70;99.90;;;;;;7346882;19;108705;-76
2022/09/18 05:40:59;;;;;;;;;;;12.70;99.90;;;;;;7339597;19;110242;-76
2022/09/18 05:43:26;;;;;;;;;;;12.80;99.90;;;;;;7339145;19;108923;-75
2022/09/18 05:45:53;;;;;;;;;;;12.80;99.90;;;;;;7339455;19;110064;-76
2022/09/18 05:48:20;;;;;;;;;;;12.70;99.90;;;;;;7338627;19;110201;-76
2022/09/18 05:50:49;;;;;;;;;;;12.70;99.90;;;;;;7338630;19;108611;-76
2022/09/18 05:53:17;;;;;;;;;;;12.70;99.90;;;;;;7338259;19;108797;-75
2022/09/18 05:55:44;;;;;;;;;;;12.70;99.90;;;;;;7339569;19;111325;-75
2022/09/18 05:58:12;;;;;;;;;;;12.70;99.90;;;;;;7336867;19;108613;-76
2022/09/18 06:00:39;;;;;;;;;;;12.70;99.90;;;;;;7346006;19;108622;-76
2022/09/18 06:03:08;;;;;;;;;;;12.80;99.90;;;;;;7337266;19;108647;-75
2022/09/18 06:05:36;;;;;;;;;;;12.70;99.90;;;;;;7339589;19;108919;-76
2022/09/18 06:08:04;;;;;;;;;;;12.80;99.90;;;;;;7338370;19;109247;-76
2022/09/18 06:10:32;;;;;;;;;;;12.80;99.90;;;;;;7338471;19;108423;-76
2022/09/18 06:12:59;;;;;;;;;;;12.80;99.90;;;;;;7338743;19;108626;-77
2022/09/18 06:15:26;;;;;;;;;;;12.80;99.90;;;;;;7337357;19;111107;-76
2022/09/18 06:17:53;;;;;;;;;;;12.80;99.90;;;;;;7336429;19;108977;-75
2022/09/18 06:20:20;;;;;;;;;;;12.80;99.90;;;;;;7345558;19;109179;-76
2022/09/18 06:22:47;;;;;;;;;;;12.80;99.90;;;;;;7336958;19;108950;-76
2022/09/18 06:25:17;;;;;;;;;;;12.80;99.90;;;;;;7339260;19;108537;-76
2022/09/18 06:27:44;;;;;;;;;;;12.80;99.90;;;;;;7338374;19;111503;-75
2022/09/18 06:30:11;;;;;;;;;;;12.80;99.90;;;;;;7346252;19;108671;-75
2022/09/18 06:32:38;;;;;;;;;;;12.80;99.90;;;;;;7346151;19;108344;-75
2022/09/18 06:35:05;;;;;;;;;;;12.80;99.90;;;;;;7344399;19;110164;-76
2022/09/18 06:37:31;;;;;;;;;;;12.80;99.90;;;;;;7345230;19;108950;-75
2022/09/18 06:39:58;;;;;;;;;;;12.80;99.90;;;;;;7346473;19;109423;-75
2022/09/18 06:42:25;;;;;;;;;;;12.80;99.90;;;;;;7350863;19;110513;-76
2022/09/18 06:44:54;;;;;;;;;;;12.80;99.90;;;;;;7344737;19;113181;-75
2022/09/18 06:47:21;;;;;;;;;;;12.80;99.90;;;;;;7342140;19;109220;-75
2022/09/18 06:49:47;;;;;;;;;;;12.80;99.90;;;;;;7346079;19;108983;-76
2022/09/18 06:52:14;;;;;;;;;;;12.80;99.90;;;;;;7343572;19;109181;-75
2022/09/18 06:54:41;;;;;;;;;;;12.90;99.90;;;;;;7345657;19;110056;-75
2022/09/18 06:57:08;;;;;;;;;;;12.80;99.90;;;;;;7344705;19;108546;-75
2022/09/18 06:59:36;;;;;;;;;;;12.90;99.90;;;;;;7345216;19;109285;-75
2022/09/18 07:02:04;;;;;;;;;;;12.90;99.90;;;;;;7342916;19;109753;-75
2022/09/18 07:04:31;;;;;;;;;;;12.90;99.90;;;;;;7352417;19;109018;-76
2022/09/18 07:06:58;;;;;;;;;;;12.90;99.90;;;;;;7342815;19;109746;-75
2022/09/18 07:09:25;;;;;;;;;;;12.90;99.90;;;;;;7344414;19;109029;-76
2022/09/18 07:11:52;;;;;;;;;;;12.80;99.90;;;;;;7345748;19;109176;-76
2022/09/18 07:14:19;;;;;;;;;;;12.90;99.90;;;;;;7345161;19;110446;-75
2022/09/18 07:16:46;;;;;;;;;;;12.80;99.90;;;;;;7343186;19;108969;-75
2022/09/18 07:19:12;;;;;;;;;;;12.90;99.90;;;;;;7343879;19;108710;-75
2022/09/18 07:21:39;;;;;;;;;;;12.80;99.90;;;;;;7343931;19;111797;-75
2022/09/18 07:24:06;;;;;;;;;;;12.90;99.90;;;;;;7342602;19;109268;-75
2022/09/18 07:26:33;;;;;;;;;;;12.80;99.90;;;;;;7347862;19;109275;-75
2022/09/18 07:29:00;;;;;;;;;;;12.90;99.90;;;;;;7343393;19;108973;-75
2022/09/18 07:31:27;;;;;;;;;;;12.90;99.90;;;;;;7341096;19;109393;-75
2022/09/18 07:33:55;;;;;;;;;;;12.90;99.90;;;;;;7344924;19;108918;-75
2022/09/18 07:36:21;;;;;;;;;;;13.00;99.90;;;;;;7344173;19;108561;-75
2022/09/18 07:38:49;;;;;;;;;;;12.90;99.90;;;;;;7343243;19;108475;-75
2022/09/18 07:41:17;;;;;;;;;;;13.00;99.90;;;;;;7341546;19;110290;-75
2022/09/18 07:43:44;;;;;;;;;;;13.00;99.90;;;;;;7344112;19;109891;-75
2022/09/18 07:46:11;;;;;;;;;;;13.00;99.90;;;;;;7342864;19;109351;-75
2022/09/18 07:48:38;;;;;;;;;;;13.10;99.90;;;;;;7348604;19;109104;-75
2022/09/18 07:51:05;;;;;;;;;;;13.10;99.90;;;;;;7345011;19;108673;-75
2022/09/18 07:53:32;;;;;;;;;;;13.10;99.90;;;;;;7343877;19;110398;-75
2022/09/18 07:55:59;;;;;;;;;;;13.20;99.90;;;;;;7342863;19;108428;-74
2022/09/18 07:58:26;;;;;;;;;;;13.10;99.90;;;;;;7341916;19;109520;-75
2022/09/18 08:00:53;;;;;;;;;;;13.20;99.90;;;;;;7342250;19;110296;-75
2022/09/18 08:03:19;;;;;;;;;;;13.30;99.90;;;;;;7342169;19;108598;-75
2022/09/18 08:05:46;;;;;;;;;;;13.30;99.90;;;;;;7342578;19;112551;-74
2022/09/18 08:08:14;;;;;;;;;;;13.40;99.90;;;;;;7342360;19;109993;-75
2022/09/18 08:10:42;;;;;;;;;;;13.30;99.90;;;;;;7349127;19;108514;-75
2022/09/18 08:13:09;;;;;;;;;;;13.40;99.90;;;;;;7341064;19;112318;-75
2022/09/18 08:15:37;;;;;;;;;;;13.40;99.90;;;;;;7341781;19;108637;-75
2022/09/18 08:18:05;;;;;;;;;;;13.40;99.90;;;;;;7341461;19;112841;-75
2022/09/18 08:20:33;;;;;;;;;;;13.30;99.90;;;;;;7341319;19;109296;-75
2022/09/18 08:23:04;;;;;;;;;;;13.40;99.90;;;;;;7341233;19;108863;-75
2022/09/18 08:25:31;;;;;;;;;;;13.30;99.90;;;;;;7342416;19;108990;-75
2022/09/18 08:28:02;;;;;;;;;;;13.40;99.90;;;;;;7339235;19;110212;-75
2022/09/18 08:30:29;;;;;;;;;;;13.40;99.90;;;;;;7347526;19;108390;-75
2022/09/18 08:32:56;;;;;;;;;;;13.50;99.90;;;;;;7340989;19;110302;-74
2022/09/18 08:35:23;;;;;;;;;;;13.40;99.90;;;;;;7342219;19;109115;-75
2022/09/18 08:40:46;;;;;;;;;;;13.50;99.90;;;;;;7356718;19;108252;-93
2022/09/18 08:43:19;;;;;;;;;;;13.60;99.90;;;;;;7340414;19;109936;-74
2022/09/18 08:45:46;;;;;;;;;;;13.60;99.90;;;;;;7338909;19;110098;-75
2022/09/18 08:48:20;;;;;;;;;;;13.60;99.90;;;;;;7336851;19;110365;-75
2022/09/18 08:50:52;;;;;;;;;;;13.50;99.90;;;;;;7338139;19;108681;-75
2022/09/18 08:53:23;;;;;;;;;;;13.60;99.90;;;;;;7343888;19;108751;-74
2022/09/18 08:55:51;;;;;;;;;;;13.60;99.90;;;;;;7336212;19;109002;-76
2022/09/18 08:58:44;;;;;;;;;;;13.60;99.90;;;;;;7337273;19;110256;-74
2022/09/18 09:01:14;;;;;;;;;;;13.60;99.90;;;;;;7334804;19;109153;-75
2022/09/18 09:03:50;;;;;;;;;;;13.60;99.90;;;;;;7337657;19;109659;-76
2022/09/18 09:06:31;;;;;;;;;;;13.60;99.90;;;;;;7336798;19;108562;-75
2022/09/18 09:09:10;;;;;;;;;;;13.60;99.90;;;;;;7337843;19;110851;-75
2022/09/18 09:11:43;;;;;;;;;;;13.60;99.90;;;;;;7336793;19;108888;-75
2022/09/18 09:14:19;;;;;;;;;;;13.60;99.90;;;;;;7335582;19;111749;-76
2022/09/18 09:17:23;;;;;;;;;;;13.70;99.90;;;;;;7342943;19;110123;-76
2022/09/18 09:19:53;;;;;;;;;;;13.70;99.90;;;;;;7335931;19;110023;-75
2022/09/18 09:22:28;;;;;;;;;;;13.70;99.90;;;;;;7334330;19;110702;-75
2022/09/18 09:25:02;;;;;;;;;;;13.80;99.90;;;;;;7336246;19;109305;-76
2022/09/18 09:27:40;;;;;;;;;;;13.80;99.90;;;;;;7338400;19;109072;-76
2022/09/18 09:30:17;;;;;;;;;;;13.80;99.90;;;;;;7336347;19;110541;-75
2022/09/18 09:32:56;;;;;;;;;;;13.90;99.90;;;;;;7336509;19;108307;-75
2022/09/18 09:35:30;;;;;;;;;;;13.90;99.90;;;;;;7335351;19;109336;-75
2022/09/18 09:38:09;;;;;;;;;;;14.00;99.90;;;;;;7335820;19;111372;-75
2022/09/18 09:40:41;;;;;;;;;;;14.10;99.90;;;;;;7342692;19;108337;-76
2022/09/18 09:43:29;;;;;;;;;;;14.10;99.90;;;;;;7332439;19;111879;-75
2022/09/18 09:45:58;;;;;;;;;;;14.20;99.90;;;;;;7336022;19;109083;-75
2022/09/18 09:48:37;;;;;;;;;;;14.20;99.90;;;;;;7335524;19;109649;-75
2022/09/18 09:51:03;;;;;;;;;;;14.30;99.90;;;;;;7337140;19;110085;-75
2022/09/18 09:53:30;;;;;;;;;;;14.30;99.90;;;;;;7338416;19;109559;-75
2022/09/18 09:56:16;;;;;;;;;;;14.30;99.90;;;;;;7336087;19;109570;-76
2022/09/18 09:58:46;;;;;;;;;;;14.40;99.90;;;;;;7334570;19;109275;-75
2022/09/18 10:01:17;;;;;;;;;;;14.40;99.90;;;;;;7335521;19;109099;-75
2022/09/18 10:03:56;;;;;;;;;;;14.50;99.90;;;;;;7340057;19;109096;-75
2022/09/18 10:06:42;;;;;;;;;;;14.50;99.90;;;;;;7335710;19;109410;-76
2022/09/18 10:09:16;;;;;;;;;;;14.60;99.90;;;;;;7332603;19;108681;-75
2022/09/18 10:11:47;;;;;;;;;;;14.60;99.90;;;;;;7334191;19;109625;-75
2022/09/18 10:14:22;;;;;;;;;;;14.60;99.90;;;;;;7334901;19;108749;-75
2022/09/18 10:16:51;;;;;;;;;;;14.70;99.90;;;;;;7338382;19;110213;-76
2022/09/18 10:19:19;;;;;;;;;;;14.70;99.90;;;;;;7333795;19;109231;-74
2022/09/18 10:21:48;;;;;;;;;;;14.80;99.90;;;;;;7335186;19;108357;-75
2022/09/18 10:24:26;;;;;;;;;;;14.80;99.90;;;;;;7339920;19;109169;-75
2022/09/18 10:26:54;;;;;;;;;;;14.80;99.90;;;;;;7336363;19;108471;-75
2022/09/18 10:29:21;;;;;;;;;;;14.90;99.90;;;;;;7332947;19;108870;-75
2022/09/18 10:31:52;;;;;;;;;;;14.90;99.90;;;;;;7331631;19;112735;-76
2022/09/18 10:34:30;;;;;;;;;;;14.90;99.90;;;;;;7333794;19;108658;-75
2022/09/18 10:36:57;;;;;;;;;;;14.90;99.90;;;;;;7334971;19;108810;-76
2022/09/18 10:39:24;;;;;;;;;;;15.00;99.90;;;;;;7336080;19;112132;-75
2022/09/18 10:42:06;;;;;;;;;;;15.10;99.90;;;;;;7339286;19;108797;-75
2022/09/18 10:44:38;;;;;;;;;;;15.10;99.90;;;;;;7340437;19;108601;-75
2022/09/18 10:47:07;;;;;;;;;;;15.10;99.90;;;;;;7343207;19;109141;-75
2022/09/18 10:49:39;;;;;;;;;;;15.10;99.90;;;;;;7337636;19;108435;-75
2022/09/18 10:52:14;;;;;;;;;;;15.20;99.90;;;;;;7337164;19;109336;-76
2022/09/18 10:54:55;;;;;;;;;;;15.30;99.90;;;;;;7338459;19;108709;-76
2022/09/18 10:57:25;;;;;;;;;;;15.30;99.90;;;;;;7337087;19;110239;-75
2022/09/18 10:59:51;;;;;;;;;;;15.30;99.90;;;;;;7335704;19;111762;-76
2022/09/18 11:02:19;;;;;;;;;;;15.30;99.90;;;;;;7339438;19;109322;-75
2022/09/18 11:04:47;;;;;;;;;;;15.30;99.90;;;;;;7340094;19;109246;-74
2022/09/18 11:07:14;;;;;;;;;;;15.30;99.90;;;;;;7341709;19;110458;-74
2022/09/18 11:09:42;;;;;;;;;;;15.30;99.90;;;;;;7343709;19;108737;-77
2022/09/18 11:12:17;;;;;;;;;;;15.30;99.90;;;;;;7336128;19;113588;-75
2022/09/18 11:14:47;;;;;;;;;;;15.30;99.90;;;;;;7338284;19;109421;-73
2022/09/18 11:17:22;;;;;;;;;;;15.20;99.90;;;;;;7342413;19;110882;-76
2022/09/18 11:19:51;;;;;;;;;;;15.20;99.90;;;;;;7344656;19;110278;-75
2022/09/18 11:22:38;;;;;;;;;;;15.30;99.90;;;;;;7344432;19;108810;-76
2022/09/18 11:25:25;;;;;;;;;;;15.20;99.90;;;;;;7343390;19;108884;-77
2022/09/18 11:27:54;;;;;;;;;;;15.10;99.90;;;;;;7345109;19;110482;-79
2022/09/18 11:30:22;;;;;;;;;;;15.10;99.90;;;;;;7342792;19;109090;-77
2022/09/18 11:32:56;;;;;;;;;;;15.00;99.90;;;;;;7349610;19;109183;-76
2022/09/18 11:35:25;;;;;;;;;;;15.00;99.90;;;;;;7343993;19;108465;-76
2022/09/18 11:37:53;;;;;;;;;;;15.10;99.90;;;;;;7344422;19;109209;-78
2022/09/18 11:40:31;;;;;;;;;;;15.10;99.90;;;;;;7343184;19;109147;-81
2022/09/18 11:42:58;;;;;;;;;;;15.00;99.90;;;;;;7341899;19;108399;-77
2022/09/18 11:45:34;;;;;;;;;;;15.00;99.90;;;;;;7344537;19;112574;-77
2022/09/18 11:48:03;;;;;;;;;;;15.00;99.90;;;;;;7342530;19;110448;-77
2022/09/18 11:50:31;;;;;;;;;;;15.00;99.90;;;;;;7343373;19;109215;-76
2022/09/18 11:53:00;;;;;;;;;;;15.00;99.90;;;;;;7340321;19;111544;-76
2022/09/18 11:55:48;;;;;;;;;;;15.00;99.90;;;;;;7345588;19;109426;-76
2022/09/18 11:58:31;;;;;;;;;;;14.90;99.90;;;;;;7343003;19;109075;-76
2022/09/18 12:01:11;;;;;;;;;;;14.80;99.90;;;;;;7344396;19;111431;-77
2022/09/18 12:03:48;;;;;;;;;;;14.80;99.90;;;;;;7344710;19;109751;-78
2022/09/18 12:06:35;;;;;;;;;;;14.90;99.90;;;;;;7344519;19;109280;-78
2022/09/18 12:09:16;;;;;;;;;;;14.80;99.90;;;;;;7342511;19;109677;-77
2022/09/18 12:12:07;;;;;;;;;;;14.80;99.90;;;;;;7342220;19;108647;-76
2022/09/18 12:14:34;;;;;;;;;;;14.90;99.90;;;;;;7345859;19;108594;-77
2022/09/18 12:17:03;;;;;;;;;;;15.00;99.90;;;;;;7343819;19;109266;-77
2022/09/18 12:19:39;;;;;;;;;;;15.00;99.90;;;;;;7348623;19;109385;-77
2022/09/18 12:22:23;;;;;;;;;;;15.10;99.90;;;;;;7342133;19;110284;-78
2022/09/18 12:24:50;;;;;;;;;;;15.20;99.90;;;;;;7344219;19;109417;-76
2022/09/18 12:27:35;;;;;;;;;;;15.20;99.90;;;;;;7342970;19;108723;-77
2022/09/18 12:30:11;;;;;;;;;;;15.20;99.90;;;;;;7342656;19;110203;-78
2022/09/18 12:32:47;;;;;;;;;;;15.20;99.90;;;;;;7343571;19;108696;-78
2022/09/18 12:35:29;;;;;;;;;;;15.30;99.90;;;;;;7344286;19;109001;-77
2022/09/18 12:38:05;;;;;;;;;;;15.30;99.90;;;;;;7343089;19;109874;-79
2022/09/18 12:40:40;;;;;;;;;;;15.30;99.90;;;;;;7349896;19;109310;-77
2022/09/18 12:43:12;;;;;;;;;;;15.30;99.90;;;;;;7342227;19;110827;-80
2022/09/18 12:45:42;;;;;;;;;;;15.30;99.90;;;;;;7343857;19;108437;-79
2022/09/18 12:48:17;;;;;;;;;;;15.30;99.90;;;;;;7341624;19;109205;-79
2022/09/18 12:50:50;;;;;;;;;;;15.30;99.90;;;;;;7341657;19;113650;-77
2022/09/18 12:53:36;;;;;;;;;;;15.30;99.90;;;;;;7340079;19;110608;-77
2022/09/18 12:56:14;;;;;;;;;;;15.30;99.90;;;;;;7341663;19;109208;-77
2022/09/18 12:58:57;;;;;;;;;;;15.30;99.90;;;;;;7341677;19;110245;-77
2022/09/18 13:01:32;;;;;;;;;;;15.40;99.90;;;;;;7341071;19;108576;-76
2022/09/18 13:04:04;;;;;;;;;;;15.50;99.90;;;;;;7345950;19;109222;-76
2022/09/18 13:06:35;;;;;;;;;;;15.60;99.90;;;;;;7342492;19;108593;-76
2022/09/18 13:09:07;;;;;;;;;;;15.60;99.90;;;;;;7341366;19;109515;-76
2022/09/18 13:11:42;;;;;;;;;;;15.70;99.90;;;;;;7341604;19;110128;-76
2022/09/18 13:14:12;;;;;;;;;;;15.70;99.90;;;;;;7338415;19;109643;-76
2022/09/18 13:16:42;;;;;;;;;;;15.80;99.90;;;;;;7342838;19;110285;-76
2022/09/18 13:19:23;;;;;;;;;;;15.80;99.90;;;;;;7340755;19;110036;-76
2022/09/18 13:21:51;;;;;;;;;;;15.90;99.90;;;;;;7338923;19;109085;-76
2022/09/18 13:24:28;;;;;;;;;;;15.90;99.90;;;;;;7340453;19;108590;-76
2022/09/18 13:26:56;;;;;;;;;;;15.90;99.90;;;;;;7343989;19;112001;-76
2022/09/18 13:29:42;;;;;;;;;;;15.90;99.90;;;;;;7341895;19;108439;-76
2022/09/18 13:32:09;;;;;;;;;;;15.90;99.90;;;;;;7339424;19;111784;-75
2022/09/18 13:34:44;;;;;;;;;;;15.90;99.90;;;;;;7340875;19;108789;-75
2022/09/18 13:37:14;;;;;;;;;;;15.80;99.90;;;;;;7339972;19;109237;-75
2022/09/18 13:39:47;;;;;;;;;;;15.60;99.90;;;;;;7339002;19;110628;-76
2022/09/18 13:42:36;;;;;;;;;;;15.40;99.90;;;;;;7341592;19;108576;-74
2022/09/18 13:45:12;;;;;;;;;;;15.20;99.90;;;;;;7336296;19;109592;-75
2022/09/18 13:47:58;;;;;;;;;;;15.20;99.90;;;;;;7341704;19;110419;-74
2022/09/18 13:50:25;;;;;;;;;;;15.30;99.90;;;;;;7344079;19;108407;-74
2022/09/18 13:52:57;;;;;;;;;;;15.30;99.90;;;;;;7337666;19;111126;-73
2022/09/18 13:55:27;;;;;;;;;;;15.30;99.90;;;;;;7338630;19;108909;-75
2022/09/18 13:58:12;;;;;;;;;;;15.20;99.90;;;;;;7341048;19;109935;-74
2022/09/18 14:00:39;;;;;;;;;;;15.20;99.90;;;;;;7336760;19;109289;-75
2022/09/18 14:03:06;;;;;;;;;;;15.20;99.90;;;;;;7338491;19;108500;-74
2022/09/18 14:05:34;;;;;;;;;;;15.10;99.90;;;;;;7339441;19;110180;-75
2022/09/18 14:08:03;;;;;;;;;;;15.10;99.90;;;;;;7338389;19;110416;-74
2022/09/18 14:10:41;;;;;;;;;;;15.00;99.90;;;;;;7339696;19;109150;-74
2022/09/18 14:13:30;;;;;;;;;;;14.90;99.90;;;;;;7342984;19;108722;-74
2022/09/18 14:16:15;;;;;;;;;;;14.90;99.90;;;;;;7339332;19;109487;-76
2022/09/18 14:18:42;;;;;;;;;;;14.90;99.90;;;;;;7338516;19;109073;-76
2022/09/18 14:21:30;;;;;;;;;;;14.80;99.90;;;;;;7336302;19;109698;-74
2022/09/18 14:24:01;;;;;;;;;;;14.70;99.90;;;;;;7336256;19;109471;-74
2022/09/18 14:26:32;;;;;;;;;;;14.70;99.90;;;;;;7333803;19;113279;-75
2022/09/18 14:29:13;;;;;;;;;;;14.80;99.90;;;;;;7336335;19;108655;-74